sensor_id;sensor_type;location;lat;lon;timestamp;P1;durP1;ratioP1;P2;durP2;ratioP2
12631;SDS011;6381;45.748;12.106;2023-12-22T00:01:36;32.50;;;26.20;;
12631;SDS011;6381;45.748;12.106;2023-12-22T00:04:06;21.47;;;18.93;;
12631;SDS011;6381;45.748;12.106;2023-12-22T00:06:36;21.97;;;19.73;;
12631;SDS011;6381;45.748;12.106;2023-12-22T00:09:08;20.57;;;18.53;;
12631;SDS011;6381;45.748;12.106;2023-12-22T00:11:38;22.07;;;19.77;;
12631;SDS011;6381;45.748;12.106;2023-12-22T00:14:08;21.37;;;19.17;;
12631;SDS011;6381;45.748;12.106;2023-12-22T00:16:38;24.17;;;20.37;;
12631;SDS011;6381;45.748;12.106;2023-12-22T00:19:08;22.03;;;19.83;;
12631;SDS011;6381;45.748;12.106;2023-12-22T00:21:38;20.87;;;18.87;;
12631;SDS011;6381;45.748;12.106;2023-12-22T00:24:09;21.80;;;19.60;;
12631;SDS011;6381;45.748;12.106;2023-12-22T00:26:40;21.33;;;19.13;;
12631;SDS011;6381;45.748;12.106;2023-12-22T00:29:10;22.77;;;19.27;;
12631;SDS011;6381;45.748;12.106;2023-12-22T00:31:40;21.73;;;19.47;;
12631;SDS011;6381;45.748;12.106;2023-12-22T00:34:09;21.10;;;18.97;;
12631;SDS011;6381;45.748;12.106;2023-12-22T00:36:39;20.53;;;18.53;;
12631;SDS011;6381;45.748;12.106;2023-12-22T00:39:10;21.53;;;19.27;;
12631;SDS011;6381;45.748;12.106;2023-12-22T00:41:40;21.57;;;19.57;;
12631;SDS011;6381;45.748;12.106;2023-12-22T00:44:09;21.97;;;19.70;;
12631;SDS011;6381;45.748;12.106;2023-12-22T00:46:39;22.13;;;19.83;;
12631;SDS011;6381;45.748;12.106;2023-12-22T00:49:09;22.13;;;19.70;;
12631;SDS011;6381;45.748;12.106;2023-12-22T00:51:39;23.27;;;20.97;;
12631;SDS011;6381;45.748;12.106;2023-12-22T00:54:10;22.73;;;20.47;;
12631;SDS011;6381;45.748;12.106;2023-12-22T00:56:40;22.13;;;20.03;;
12631;SDS011;6381;45.748;12.106;2023-12-22T00:59:10;22.63;;;20.33;;
12631;SDS011;6381;45.748;12.106;2023-12-22T01:01:40;21.53;;;19.50;;
12631;SDS011;6381;45.748;12.106;2023-12-22T01:04:12;20.43;;;18.43;;
12631;SDS011;6381;45.748;12.106;2023-12-22T01:06:42;21.47;;;19.27;;
12631;SDS011;6381;45.748;12.106;2023-12-22T01:09:13;21.23;;;19.27;;
12631;SDS011;6381;45.748;12.106;2023-12-22T01:11:43;22.10;;;19.97;;
12631;SDS011;6381;45.748;12.106;2023-12-22T01:14:13;22.20;;;19.87;;
12631;SDS011;6381;45.748;12.106;2023-12-22T01:16:44;23.00;;;20.60;;
12631;SDS011;6381;45.748;12.106;2023-12-22T01:19:14;21.83;;;19.57;;
12631;SDS011;6381;45.748;12.106;2023-12-22T01:21:44;22.30;;;20.20;;
12631;SDS011;6381;45.748;12.106;2023-12-22T01:24:20;22.20;;;19.97;;
12631;SDS011;6381;45.748;12.106;2023-12-22T01:26:50;20.80;;;18.80;;
12631;SDS011;6381;45.748;12.106;2023-12-22T01:29:20;21.43;;;19.33;;
12631;SDS011;6381;45.748;12.106;2023-12-22T01:31:50;21.17;;;18.97;;
12631;SDS011;6381;45.748;12.106;2023-12-22T01:34:20;21.80;;;19.80;;
12631;SDS011;6381;45.748;12.106;2023-12-22T01:36:50;22.03;;;19.73;;
12631;SDS011;6381;45.748;12.106;2023-12-22T01:39:22;21.63;;;19.43;;
12631;SDS011;6381;45.748;12.106;2023-12-22T01:41:52;20.77;;;18.77;;
12631;SDS011;6381;45.748;12.106;2023-12-22T01:44:22;21.27;;;19.07;;
12631;SDS011;6381;45.748;12.106;2023-12-22T01:46:54;21.73;;;19.63;;
12631;SDS011;6381;45.748;12.106;2023-12-22T01:49:25;21.23;;;19.13;;
12631;SDS011;6381;45.748;12.106;2023-12-22T01:51:57;20.63;;;18.47;;
12631;SDS011;6381;45.748;12.106;2023-12-22T01:54:30;20.93;;;18.93;;
12631;SDS011;6381;45.748;12.106;2023-12-22T01:57:00;20.80;;;18.70;;
12631;SDS011;6381;45.748;12.106;2023-12-22T01:59:30;20.67;;;18.63;;
12631;SDS011;6381;45.748;12.106;2023-12-22T02:02:02;20.27;;;18.30;;
12631;SDS011;6381;45.748;12.106;2023-12-22T02:04:32;21.33;;;19.30;;
12631;SDS011;6381;45.748;12.106;2023-12-22T02:07:02;20.10;;;18.20;;
12631;SDS011;6381;45.748;12.106;2023-12-22T02:09:34;20.70;;;18.70;;
12631;SDS011;6381;45.748;12.106;2023-12-22T02:12:05;20.47;;;18.43;;
12631;SDS011;6381;45.748;12.106;2023-12-22T02:14:35;19.77;;;17.67;;
12631;SDS011;6381;45.748;12.106;2023-12-22T02:17:10;19.60;;;17.80;;
12631;SDS011;6381;45.748;12.106;2023-12-22T02:19:49;20.33;;;18.43;;
12631;SDS011;6381;45.748;12.106;2023-12-22T02:22:20;19.87;;;17.97;;
12631;SDS011;6381;45.748;12.106;2023-12-22T02:24:55;20.70;;;18.70;;
12631;SDS011;6381;45.748;12.106;2023-12-22T02:27:28;20.00;;;17.90;;
12631;SDS011;6381;45.748;12.106;2023-12-22T02:30:08;19.73;;;17.73;;
12631;SDS011;6381;45.748;12.106;2023-12-22T02:32:43;20.20;;;18.20;;
12631;SDS011;6381;45.748;12.106;2023-12-22T02:35:16;18.83;;;17.03;;
12631;SDS011;6381;45.748;12.106;2023-12-22T02:37:49;19.23;;;17.33;;
12631;SDS011;6381;45.748;12.106;2023-12-22T02:40:23;19.43;;;17.53;;
12631;SDS011;6381;45.748;12.106;2023-12-22T02:42:55;19.03;;;17.03;;
12631;SDS011;6381;45.748;12.106;2023-12-22T02:45:24;17.87;;;16.17;;
12631;SDS011;6381;45.748;12.106;2023-12-22T02:47:55;18.80;;;17.00;;
12631;SDS011;6381;45.748;12.106;2023-12-22T02:50:24;20.37;;;18.40;;
12631;SDS011;6381;45.748;12.106;2023-12-22T02:52:55;20.10;;;18.03;;
12631;SDS011;6381;45.748;12.106;2023-12-22T02:55:26;20.43;;;18.10;;
12631;SDS011;6381;45.748;12.106;2023-12-22T02:57:56;19.60;;;17.70;;
12631;SDS011;6381;45.748;12.106;2023-12-22T03:00:26;21.10;;;19.00;;
12631;SDS011;6381;45.748;12.106;2023-12-22T03:02:56;21.13;;;19.10;;
12631;SDS011;6381;45.748;12.106;2023-12-22T03:05:26;20.73;;;18.73;;
12631;SDS011;6381;45.748;12.106;2023-12-22T03:07:56;20.60;;;18.50;;
12631;SDS011;6381;45.748;12.106;2023-12-22T03:10:27;20.70;;;18.80;;
12631;SDS011;6381;45.748;12.106;2023-12-22T03:12:58;20.80;;;18.70;;
12631;SDS011;6381;45.748;12.106;2023-12-22T03:15:29;20.63;;;18.73;;
12631;SDS011;6381;45.748;12.106;2023-12-22T03:17:59;20.90;;;18.90;;
12631;SDS011;6381;45.748;12.106;2023-12-22T03:20:29;21.03;;;18.97;;
12631;SDS011;6381;45.748;12.106;2023-12-22T03:22:59;20.17;;;18.17;;
12631;SDS011;6381;45.748;12.106;2023-12-22T03:25:32;19.83;;;17.73;;
12631;SDS011;6381;45.748;12.106;2023-12-22T03:28:02;21.13;;;19.13;;
12631;SDS011;6381;45.748;12.106;2023-12-22T03:30:32;20.53;;;18.43;;
12631;SDS011;6381;45.748;12.106;2023-12-22T03:33:05;20.90;;;18.90;;
12631;SDS011;6381;45.748;12.106;2023-12-22T03:35:35;22.40;;;20.00;;
12631;SDS011;6381;45.748;12.106;2023-12-22T03:38:05;20.17;;;18.00;;
12631;SDS011;6381;45.748;12.106;2023-12-22T03:40:36;20.90;;;18.67;;
12631;SDS011;6381;45.748;12.106;2023-12-22T03:43:06;19.13;;;17.27;;
12631;SDS011;6381;45.748;12.106;2023-12-22T03:45:35;19.83;;;17.93;;
12631;SDS011;6381;45.748;12.106;2023-12-22T03:48:05;19.43;;;16.90;;
12631;SDS011;6381;45.748;12.106;2023-12-22T03:50:36;18.83;;;17.07;;
12631;SDS011;6381;45.748;12.106;2023-12-22T03:53:05;19.13;;;17.17;;
12631;SDS011;6381;45.748;12.106;2023-12-22T03:55:36;19.33;;;17.43;;
12631;SDS011;6381;45.748;12.106;2023-12-22T03:58:07;18.70;;;16.80;;
12631;SDS011;6381;45.748;12.106;2023-12-22T04:00:37;18.17;;;16.37;;
12631;SDS011;6381;45.748;12.106;2023-12-22T04:03:07;18.93;;;17.10;;
12631;SDS011;6381;45.748;12.106;2023-12-22T04:05:37;17.70;;;16.10;;
12631;SDS011;6381;45.748;12.106;2023-12-22T04:08:08;17.73;;;15.93;;
12631;SDS011;6381;45.748;12.106;2023-12-22T04:10:39;18.10;;;16.37;;
12631;SDS011;6381;45.748;12.106;2023-12-22T04:13:10;19.30;;;17.30;;
12631;SDS011;6381;45.748;12.106;2023-12-22T04:15:40;17.63;;;16.03;;
12631;SDS011;6381;45.748;12.106;2023-12-22T04:18:11;18.83;;;16.93;;
12631;SDS011;6381;45.748;12.106;2023-12-22T04:20:41;17.63;;;16.00;;
12631;SDS011;6381;45.748;12.106;2023-12-22T04:23:11;18.83;;;17.00;;
12631;SDS011;6381;45.748;12.106;2023-12-22T04:25:41;17.83;;;16.03;;
12631;SDS011;6381;45.748;12.106;2023-12-22T04:28:12;17.67;;;15.97;;
12631;SDS011;6381;45.748;12.106;2023-12-22T04:30:42;17.80;;;15.90;;
12631;SDS011;6381;45.748;12.106;2023-12-22T04:33:12;17.20;;;14.63;;
12631;SDS011;6381;45.748;12.106;2023-12-22T04:35:42;16.47;;;14.87;;
12631;SDS011;6381;45.748;12.106;2023-12-22T04:38:11;16.63;;;15.00;;
12631;SDS011;6381;45.748;12.106;2023-12-22T04:40:43;16.00;;;14.50;;
12631;SDS011;6381;45.748;12.106;2023-12-22T04:43:13;15.43;;;13.93;;
12631;SDS011;6381;45.748;12.106;2023-12-22T04:45:43;15.20;;;13.70;;
12631;SDS011;6381;45.748;12.106;2023-12-22T04:48:12;16.30;;;14.77;;
12631;SDS011;6381;45.748;12.106;2023-12-22T04:50:42;16.77;;;14.47;;
12631;SDS011;6381;45.748;12.106;2023-12-22T04:53:12;16.30;;;14.43;;
12631;SDS011;6381;45.748;12.106;2023-12-22T04:55:43;17.57;;;15.77;;
12631;SDS011;6381;45.748;12.106;2023-12-22T04:58:13;16.53;;;14.93;;
12631;SDS011;6381;45.748;12.106;2023-12-22T05:00:43;17.00;;;15.33;;
12631;SDS011;6381;45.748;12.106;2023-12-22T05:03:13;16.50;;;14.80;;
12631;SDS011;6381;45.748;12.106;2023-12-22T05:05:42;13.83;;;12.47;;
12631;SDS011;6381;45.748;12.106;2023-12-22T05:08:12;14.53;;;13.07;;
12631;SDS011;6381;45.748;12.106;2023-12-22T05:10:45;15.83;;;14.20;;
12631;SDS011;6381;45.748;12.106;2023-12-22T05:13:15;14.37;;;12.80;;
12631;SDS011;6381;45.748;12.106;2023-12-22T05:15:45;15.50;;;13.90;;
12631;SDS011;6381;45.748;12.106;2023-12-22T05:18:15;15.97;;;14.37;;
12631;SDS011;6381;45.748;12.106;2023-12-22T05:20:44;14.90;;;13.30;;
12631;SDS011;6381;45.748;12.106;2023-12-22T05:23:15;14.30;;;12.90;;
12631;SDS011;6381;45.748;12.106;2023-12-22T05:25:46;14.17;;;12.77;;
12631;SDS011;6381;45.748;12.106;2023-12-22T05:28:16;15.90;;;14.30;;
12631;SDS011;6381;45.748;12.106;2023-12-22T05:30:47;17.57;;;14.70;;
12631;SDS011;6381;45.748;12.106;2023-12-22T05:33:17;15.93;;;14.37;;
12631;SDS011;6381;45.748;12.106;2023-12-22T05:35:46;17.70;;;15.80;;
12631;SDS011;6381;45.748;12.106;2023-12-22T05:38:16;19.93;;;17.63;;
12631;SDS011;6381;45.748;12.106;2023-12-22T05:40:48;19.37;;;17.47;;
12631;SDS011;6381;45.748;12.106;2023-12-22T05:43:19;21.90;;;19.70;;
12631;SDS011;6381;45.748;12.106;2023-12-22T05:45:53;23.67;;;20.70;;
12631;SDS011;6381;45.748;12.106;2023-12-22T05:48:37;22.60;;;20.13;;
12631;SDS011;6381;45.748;12.106;2023-12-22T05:51:08;22.13;;;19.93;;
12631;SDS011;6381;45.748;12.106;2023-12-22T05:53:41;26.13;;;23.53;;
12631;SDS011;6381;45.748;12.106;2023-12-22T05:56:20;26.60;;;24.00;;
12631;SDS011;6381;45.748;12.106;2023-12-22T05:58:50;25.13;;;22.63;;
12631;SDS011;6381;45.748;12.106;2023-12-22T06:01:21;27.57;;;23.80;;
12631;SDS011;6381;45.748;12.106;2023-12-22T06:03:51;24.53;;;22.17;;
12631;SDS011;6381;45.748;12.106;2023-12-22T06:06:22;27.37;;;24.47;;
12631;SDS011;6381;45.748;12.106;2023-12-22T06:08:52;27.33;;;24.53;;
12631;SDS011;6381;45.748;12.106;2023-12-22T06:11:23;30.47;;;27.53;;
12631;SDS011;6381;45.748;12.106;2023-12-22T06:13:53;33.30;;;29.63;;
12631;SDS011;6381;45.748;12.106;2023-12-22T06:16:23;33.77;;;30.27;;
12631;SDS011;6381;45.748;12.106;2023-12-22T06:18:53;35.30;;;31.67;;
12631;SDS011;6381;45.748;12.106;2023-12-22T06:21:23;39.30;;;35.00;;
12631;SDS011;6381;45.748;12.106;2023-12-22T06:23:54;40.20;;;36.00;;
12631;SDS011;6381;45.748;12.106;2023-12-22T06:26:28;39.90;;;35.83;;
12631;SDS011;6381;45.748;12.106;2023-12-22T06:28:58;38.70;;;34.57;;
12631;SDS011;6381;45.748;12.106;2023-12-22T06:31:32;38.33;;;34.17;;
12631;SDS011;6381;45.748;12.106;2023-12-22T06:34:02;39.33;;;35.30;;
12631;SDS011;6381;45.748;12.106;2023-12-22T06:36:33;40.50;;;35.33;;
12631;SDS011;6381;45.748;12.106;2023-12-22T06:39:03;26.20;;;23.40;;
12631;SDS011;6381;45.748;12.106;2023-12-22T06:41:33;31.77;;;28.20;;
12631;SDS011;6381;45.748;12.106;2023-12-22T06:44:04;33.90;;;30.43;;
12631;SDS011;6381;45.748;12.106;2023-12-22T06:46:35;35.13;;;31.17;;
12631;SDS011;6381;45.748;12.106;2023-12-22T06:49:05;32.90;;;29.13;;
12631;SDS011;6381;45.748;12.106;2023-12-22T06:51:35;33.33;;;27.70;;
12631;SDS011;6381;45.748;12.106;2023-12-22T06:54:05;32.57;;;28.83;;
12631;SDS011;6381;45.748;12.106;2023-12-22T06:56:40;30.17;;;26.97;;
12631;SDS011;6381;45.748;12.106;2023-12-22T06:59:11;30.03;;;26.73;;
12631;SDS011;6381;45.748;12.106;2023-12-22T07:01:43;31.43;;;28.07;;
12631;SDS011;6381;45.748;12.106;2023-12-22T07:07:37;31.83;;;28.43;;
12631;SDS011;6381;45.748;12.106;2023-12-22T07:10:07;30.47;;;27.30;;
12631;SDS011;6381;45.748;12.106;2023-12-22T07:12:41;29.90;;;26.73;;
12631;SDS011;6381;45.748;12.106;2023-12-22T07:15:12;33.00;;;29.50;;
12631;SDS011;6381;45.748;12.106;2023-12-22T07:17:42;32.57;;;29.27;;
12631;SDS011;6381;45.748;12.106;2023-12-22T07:20:13;31.03;;;27.83;;
12631;SDS011;6381;45.748;12.106;2023-12-22T07:22:44;31.90;;;28.47;;
12631;SDS011;6381;45.748;12.106;2023-12-22T07:25:14;34.77;;;30.67;;
12631;SDS011;6381;45.748;12.106;2023-12-22T07:27:48;33.73;;;30.20;;
12631;SDS011;6381;45.748;12.106;2023-12-22T07:30:19;36.23;;;31.03;;
12631;SDS011;6381;45.748;12.106;2023-12-22T07:32:49;32.63;;;29.37;;
12631;SDS011;6381;45.748;12.106;2023-12-22T07:35:20;33.67;;;30.00;;
12631;SDS011;6381;45.748;12.106;2023-12-22T07:37:50;36.97;;;32.07;;
12631;SDS011;6381;45.748;12.106;2023-12-22T07:40:22;34.97;;;31.27;;
12631;SDS011;6381;45.748;12.106;2023-12-22T07:42:53;34.30;;;30.40;;
12631;SDS011;6381;45.748;12.106;2023-12-22T07:45:23;35.30;;;31.60;;
12631;SDS011;6381;45.748;12.106;2023-12-22T07:47:54;36.60;;;30.20;;
12631;SDS011;6381;45.748;12.106;2023-12-22T07:50:25;35.37;;;31.60;;
12631;SDS011;6381;45.748;12.106;2023-12-22T07:52:57;35.43;;;31.73;;
12631;SDS011;6381;45.748;12.106;2023-12-22T07:55:32;40.47;;;36.07;;
12631;SDS011;6381;45.748;12.106;2023-12-22T07:58:03;36.33;;;32.60;;
12631;SDS011;6381;45.748;12.106;2023-12-22T08:00:33;39.67;;;35.40;;
12631;SDS011;6381;45.748;12.106;2023-12-22T08:03:04;38.90;;;34.90;;
12631;SDS011;6381;45.748;12.106;2023-12-22T08:05:34;47.00;;;40.63;;
12631;SDS011;6381;45.748;12.106;2023-12-22T08:08:04;46.03;;;41.17;;
12631;SDS011;6381;45.748;12.106;2023-12-22T08:10:34;48.13;;;42.90;;
12631;SDS011;6381;45.748;12.106;2023-12-22T08:13:06;48.27;;;42.40;;
12631;SDS011;6381;45.748;12.106;2023-12-22T08:15:37;62.33;;;55.50;;
12631;SDS011;6381;45.748;12.106;2023-12-22T08:18:08;62.73;;;55.80;;
12631;SDS011;6381;45.748;12.106;2023-12-22T08:20:38;62.67;;;56.23;;
12631;SDS011;6381;45.748;12.106;2023-12-22T08:23:11;65.00;;;58.00;;
12631;SDS011;6381;45.748;12.106;2023-12-22T08:25:42;67.37;;;60.23;;
12631;SDS011;6381;45.748;12.106;2023-12-22T08:28:14;67.53;;;58.50;;
12631;SDS011;6381;45.748;12.106;2023-12-22T08:30:45;65.77;;;58.87;;
12631;SDS011;6381;45.748;12.106;2023-12-22T08:33:15;62.67;;;54.17;;
12631;SDS011;6381;45.748;12.106;2023-12-22T08:35:45;61.07;;;52.83;;
12631;SDS011;6381;45.748;12.106;2023-12-22T08:38:15;59.57;;;51.13;;
12631;SDS011;6381;45.748;12.106;2023-12-22T08:40:46;53.07;;;43.17;;
12631;SDS011;6381;45.748;12.106;2023-12-22T08:43:21;46.00;;;40.97;;
12631;SDS011;6381;45.748;12.106;2023-12-22T08:45:52;47.23;;;39.43;;
12631;SDS011;6381;45.748;12.106;2023-12-22T08:48:22;42.47;;;37.97;;
12631;SDS011;6381;45.748;12.106;2023-12-22T08:50:53;43.47;;;38.87;;
12631;SDS011;6381;45.748;12.106;2023-12-22T08:53:23;44.87;;;40.27;;
12631;SDS011;6381;45.748;12.106;2023-12-22T08:55:53;44.77;;;38.93;;
12631;SDS011;6381;45.748;12.106;2023-12-22T08:58:25;44.47;;;39.63;;
12631;SDS011;6381;45.748;12.106;2023-12-22T09:00:57;46.07;;;41.37;;
12631;SDS011;6381;45.748;12.106;2023-12-22T09:03:27;43.77;;;39.27;;
12631;SDS011;6381;45.748;12.106;2023-12-22T09:05:57;41.47;;;37.13;;
12631;SDS011;6381;45.748;12.106;2023-12-22T09:08:28;41.20;;;37.00;;
12631;SDS011;6381;45.748;12.106;2023-12-22T09:11:02;40.73;;;36.40;;
12631;SDS011;6381;45.748;12.106;2023-12-22T09:13:34;40.90;;;36.57;;
12631;SDS011;6381;45.748;12.106;2023-12-22T09:16:05;45.17;;;40.50;;
12631;SDS011;6381;45.748;12.106;2023-12-22T09:18:35;43.73;;;39.27;;
12631;SDS011;6381;45.748;12.106;2023-12-22T09:21:05;44.67;;;40.10;;
12631;SDS011;6381;45.748;12.106;2023-12-22T09:23:36;44.83;;;38.67;;
12631;SDS011;6381;45.748;12.106;2023-12-22T09:26:06;46.33;;;41.20;;
12631;SDS011;6381;45.748;12.106;2023-12-22T09:28:38;44.77;;;40.23;;
12631;SDS011;6381;45.748;12.106;2023-12-22T09:31:07;44.73;;;39.30;;
12631;SDS011;6381;45.748;12.106;2023-12-22T09:33:38;42.57;;;38.10;;
12631;SDS011;6381;45.748;12.106;2023-12-22T09:36:09;46.10;;;38.03;;
12631;SDS011;6381;45.748;12.106;2023-12-22T09:38:39;46.03;;;41.40;;
12631;SDS011;6381;45.748;12.106;2023-12-22T09:41:11;43.90;;;39.13;;
12631;SDS011;6381;45.748;12.106;2023-12-22T09:43:44;48.20;;;41.83;;
12631;SDS011;6381;45.748;12.106;2023-12-22T09:46:18;47.67;;;40.97;;
12631;SDS011;6381;45.748;12.106;2023-12-22T09:48:49;47.07;;;41.93;;
12631;SDS011;6381;45.748;12.106;2023-12-22T09:51:21;48.40;;;42.60;;
12631;SDS011;6381;45.748;12.106;2023-12-22T09:53:51;50.63;;;45.03;;
12631;SDS011;6381;45.748;12.106;2023-12-22T09:56:23;51.00;;;44.77;;
12631;SDS011;6381;45.748;12.106;2023-12-22T09:58:56;53.67;;;45.40;;
12631;SDS011;6381;45.748;12.106;2023-12-22T10:01:27;55.50;;;46.27;;
12631;SDS011;6381;45.748;12.106;2023-12-22T10:03:59;49.33;;;42.83;;
12631;SDS011;6381;45.748;12.106;2023-12-22T10:06:30;55.07;;;43.03;;
12631;SDS011;6381;45.748;12.106;2023-12-22T10:09:00;49.67;;;42.57;;
12631;SDS011;6381;45.748;12.106;2023-12-22T10:11:32;49.60;;;41.90;;
12631;SDS011;6381;45.748;12.106;2023-12-22T10:14:05;56.87;;;43.37;;
12631;SDS011;6381;45.748;12.106;2023-12-22T10:16:37;50.80;;;42.43;;
12631;SDS011;6381;45.748;12.106;2023-12-22T10:19:07;49.00;;;42.03;;
12631;SDS011;6381;45.748;12.106;2023-12-22T10:21:38;49.97;;;40.77;;
12631;SDS011;6381;45.748;12.106;2023-12-22T10:24:08;52.43;;;40.17;;
12631;SDS011;6381;45.748;12.106;2023-12-22T10:27:18;49.07;;;43.07;;
12631;SDS011;6381;45.748;12.106;2023-12-22T10:29:53;45.90;;;39.50;;
12631;SDS011;6381;45.748;12.106;2023-12-22T10:32:25;46.20;;;39.70;;
12631;SDS011;6381;45.748;12.106;2023-12-22T10:34:55;43.13;;;36.07;;
12631;SDS011;6381;45.748;12.106;2023-12-22T10:37:25;43.10;;;34.87;;
12631;SDS011;6381;45.748;12.106;2023-12-22T10:39:56;42.83;;;36.27;;
12631;SDS011;6381;45.748;12.106;2023-12-22T10:42:26;45.77;;;36.90;;
12631;SDS011;6381;45.748;12.106;2023-12-22T10:44:57;42.60;;;36.60;;
12631;SDS011;6381;45.748;12.106;2023-12-22T10:47:28;42.80;;;36.20;;
12631;SDS011;6381;45.748;12.106;2023-12-22T10:49:57;41.07;;;36.40;;
12631;SDS011;6381;45.748;12.106;2023-12-22T10:52:32;44.13;;;36.30;;
12631;SDS011;6381;45.748;12.106;2023-12-22T10:55:02;42.63;;;36.53;;
12631;SDS011;6381;45.748;12.106;2023-12-22T10:57:33;40.10;;;33.77;;
12631;SDS011;6381;45.748;12.106;2023-12-22T11:00:09;41.23;;;36.27;;
12631;SDS011;6381;45.748;12.106;2023-12-22T11:02:43;43.30;;;35.57;;
12631;SDS011;6381;45.748;12.106;2023-12-22T11:05:18;42.53;;;36.47;;
12631;SDS011;6381;45.748;12.106;2023-12-22T11:07:54;44.03;;;34.60;;
12631;SDS011;6381;45.748;12.106;2023-12-22T11:10:30;40.87;;;35.90;;
12631;SDS011;6381;45.748;12.106;2023-12-22T11:13:00;45.80;;;37.00;;
12631;SDS011;6381;45.748;12.106;2023-12-22T11:15:41;47.77;;;36.63;;
12631;SDS011;6381;45.748;12.106;2023-12-22T11:19:36;46.90;;;37.53;;
12631;SDS011;6381;45.748;12.106;2023-12-22T11:22:15;53.70;;;40.43;;
12631;SDS011;6381;45.748;12.106;2023-12-22T11:25:40;45.50;;;37.60;;
12631;SDS011;6381;45.748;12.106;2023-12-22T11:28:11;40.73;;;35.57;;
12631;SDS011;6381;45.748;12.106;2023-12-22T11:30:44;41.87;;;35.20;;
12631;SDS011;6381;45.748;12.106;2023-12-22T11:33:14;43.50;;;33.77;;
12631;SDS011;6381;45.748;12.106;2023-12-22T11:35:46;38.73;;;32.37;;
12631;SDS011;6381;45.748;12.106;2023-12-22T11:38:16;43.77;;;32.77;;
12631;SDS011;6381;45.748;12.106;2023-12-22T11:40:46;37.30;;;32.97;;
12631;SDS011;6381;45.748;12.106;2023-12-22T11:43:19;38.13;;;32.63;;
12631;SDS011;6381;45.748;12.106;2023-12-22T11:45:51;41.63;;;32.73;;
12631;SDS011;6381;45.748;12.106;2023-12-22T11:48:21;38.37;;;31.87;;
12631;SDS011;6381;45.748;12.106;2023-12-22T11:50:51;36.60;;;31.77;;
12631;SDS011;6381;45.748;12.106;2023-12-22T11:53:22;37.10;;;32.30;;
12631;SDS011;6381;45.748;12.106;2023-12-22T12:01:00;38.00;;;30.43;;
12631;SDS011;6381;45.748;12.106;2023-12-22T12:03:32;34.30;;;29.13;;
12631;SDS011;6381;45.748;12.106;2023-12-22T12:09:03;35.53;;;31.53;;
12631;SDS011;6381;45.748;12.106;2023-12-22T12:14:44;34.72;;;29.95;;
12631;SDS011;6381;45.748;12.106;2023-12-22T12:17:21;43.97;;;32.60;;
12631;SDS011;6381;45.748;12.106;2023-12-22T12:19:57;36.28;;;30.83;;
12631;SDS011;6381;45.748;12.106;2023-12-22T12:30:48;35.85;;;28.70;;
12631;SDS011;6381;45.748;12.106;2023-12-22T12:33:20;33.13;;;28.98;;
12631;SDS011;6381;45.748;12.106;2023-12-22T12:35:50;34.50;;;28.95;;
12631;SDS011;6381;45.748;12.106;2023-12-22T12:38:28;34.85;;;28.95;;
12631;SDS011;6381;45.748;12.106;2023-12-22T12:41:09;31.92;;;28.38;;
12631;SDS011;6381;45.748;12.106;2023-12-22T12:43:41;31.17;;;26.48;;
12631;SDS011;6381;45.748;12.106;2023-12-22T12:46:11;28.10;;;25.08;;
12631;SDS011;6381;45.748;12.106;2023-12-22T12:48:43;31.95;;;26.83;;
12631;SDS011;6381;45.748;12.106;2023-12-22T12:51:35;29.58;;;26.48;;
12631;SDS011;6381;45.748;12.106;2023-12-22T12:55:13;33.63;;;26.90;;
12631;SDS011;6381;45.748;12.106;2023-12-22T12:58:03;33.03;;;25.83;;
12631;SDS011;6381;45.748;12.106;2023-12-22T13:01:04;29.67;;;25.27;;
12631;SDS011;6381;45.748;12.106;2023-12-22T13:03:55;28.98;;;24.67;;
12631;SDS011;6381;45.748;12.106;2023-12-22T13:06:25;28.77;;;24.05;;
12631;SDS011;6381;45.748;12.106;2023-12-22T13:08:56;30.80;;;25.58;;
12631;SDS011;6381;45.748;12.106;2023-12-22T13:11:27;30.58;;;25.08;;
12631;SDS011;6381;45.748;12.106;2023-12-22T13:13:59;29.70;;;25.05;;
12631;SDS011;6381;45.748;12.106;2023-12-22T13:16:30;29.30;;;23.63;;
12631;SDS011;6381;45.748;12.106;2023-12-22T13:19:01;27.27;;;23.40;;
12631;SDS011;6381;45.748;12.106;2023-12-22T13:24:32;28.05;;;24.17;;
12631;SDS011;6381;45.748;12.106;2023-12-22T13:27:02;27.15;;;24.25;;
12631;SDS011;6381;45.748;12.106;2023-12-22T13:29:42;28.88;;;25.42;;
12631;SDS011;6381;45.748;12.106;2023-12-22T13:32:16;28.98;;;25.48;;
12631;SDS011;6381;45.748;12.106;2023-12-22T13:34:49;31.40;;;23.35;;
12631;SDS011;6381;45.748;12.106;2023-12-22T13:37:20;33.95;;;26.67;;
12631;SDS011;6381;45.748;12.106;2023-12-22T13:39:51;30.63;;;26.00;;
12631;SDS011;6381;45.748;12.106;2023-12-22T13:42:21;30.63;;;26.33;;
12631;SDS011;6381;45.748;12.106;2023-12-22T13:44:51;33.72;;;26.98;;
12631;SDS011;6381;45.748;12.106;2023-12-22T13:47:21;39.60;;;31.35;;
12631;SDS011;6381;45.748;12.106;2023-12-22T13:49:56;28.15;;;24.52;;
12631;SDS011;6381;45.748;12.106;2023-12-22T13:52:27;32.60;;;27.80;;
12631;SDS011;6381;45.748;12.106;2023-12-22T13:55:00;33.22;;;26.65;;
12631;SDS011;6381;45.748;12.106;2023-12-22T13:57:30;34.13;;;27.13;;
12631;SDS011;6381;45.748;12.106;2023-12-22T13:59:59;31.05;;;27.77;;
12631;SDS011;6381;45.748;12.106;2023-12-22T14:02:32;32.65;;;27.40;;
12631;SDS011;6381;45.748;12.106;2023-12-22T14:05:03;31.42;;;26.38;;
12631;SDS011;6381;45.748;12.106;2023-12-22T14:07:34;29.67;;;25.98;;
12631;SDS011;6381;45.748;12.106;2023-12-22T14:10:04;29.90;;;26.08;;
12631;SDS011;6381;45.748;12.106;2023-12-22T14:12:34;29.15;;;24.45;;
12631;SDS011;6381;45.748;12.106;2023-12-22T14:15:05;28.85;;;25.02;;
12631;SDS011;6381;45.748;12.106;2023-12-22T14:17:36;27.73;;;24.75;;
12631;SDS011;6381;45.748;12.106;2023-12-22T14:20:08;28.55;;;25.45;;
12631;SDS011;6381;45.748;12.106;2023-12-22T14:22:39;29.15;;;26.00;;
12631;SDS011;6381;45.748;12.106;2023-12-22T14:25:09;28.77;;;24.25;;
12631;SDS011;6381;45.748;12.106;2023-12-22T14:27:38;31.45;;;26.83;;
12631;SDS011;6381;45.748;12.106;2023-12-22T14:30:08;33.25;;;29.75;;
12631;SDS011;6381;45.748;12.106;2023-12-22T14:32:39;32.20;;;28.70;;
12631;SDS011;6381;45.748;12.106;2023-12-22T14:35:11;33.17;;;28.98;;
12631;SDS011;6381;45.748;12.106;2023-12-22T14:37:41;33.57;;;28.30;;
12631;SDS011;6381;45.748;12.106;2023-12-22T14:40:12;37.47;;;30.13;;
12631;SDS011;6381;45.748;12.106;2023-12-22T14:42:43;32.23;;;28.80;;
12631;SDS011;6381;45.748;12.106;2023-12-22T14:45:13;34.70;;;30.43;;
12631;SDS011;6381;45.748;12.106;2023-12-22T14:47:43;39.30;;;31.97;;
12631;SDS011;6381;45.748;12.106;2023-12-22T14:50:15;38.20;;;32.03;;
12631;SDS011;6381;45.748;12.106;2023-12-22T14:52:45;43.47;;;31.90;;
12631;SDS011;6381;45.748;12.106;2023-12-22T14:55:16;40.80;;;32.57;;
12631;SDS011;6381;45.748;12.106;2023-12-22T14:57:46;34.53;;;30.63;;
12631;SDS011;6381;45.748;12.106;2023-12-22T15:00:16;40.60;;;31.97;;
12631;SDS011;6381;45.748;12.106;2023-12-22T15:02:47;43.60;;;35.63;;
12631;SDS011;6381;45.748;12.106;2023-12-22T15:05:19;40.23;;;32.77;;
12631;SDS011;6381;45.748;12.106;2023-12-22T15:07:50;44.67;;;36.67;;
12631;SDS011;6381;45.748;12.106;2023-12-22T15:10:21;40.63;;;34.30;;
12631;SDS011;6381;45.748;12.106;2023-12-22T15:12:51;43.50;;;34.03;;
12631;SDS011;6381;45.748;12.106;2023-12-22T15:15:21;38.33;;;33.43;;